Rosaria Lauro — IXXO — position and weather

sailwx.info

Track history (hours):
 
Tides and Currents Weather Stations Pressure Air Temp Water Temp Dewpoint Dewpoint Depression Visibility Wind Speed Wind Dir Waves Ship Positions

Rosaria Lauro

Last reported at 2015-Jan-29 17:33 UTC. Time now 2015-Jan-31 17:45 UTC.
Position N 40°45' E 013°56'.

Length 40 m; draft 1.1 m.

Type: Passenger vessel. MMSI: 247055900.

Date/timePositionNaut miles runAvg speedWind from/ knotsBaromVisibWave heightAir tempDewpointWater temp
2015-Jan-29 17:33N 40°45' E 013°56'1615.2
2015-Jan-29 16:30N 40°50' E 014°17'1010.6
2015-Jan-29 15:34N 40°46' E 014°04'6 6.2
2015-Jan-29 14:33N 40°45' E 013°56'16 5.3
2015-Jan-29 11:28N 40°49' E 014°17'1617.7
2015-Jan-29 10:34N 40°45' E 013°56'0 0.5
2015-Jan-29 09:33N 40°45' E 013°56'1613.4
2015-Jan-29 08:22N 40°50' E 014°16'2 1.9
2015-Jan-29 07:22N 40°49' E 014°14'6 7.4
2015-Jan-29 06:34N 40°46' E 014°07'1211.8
2015-Jan-29 05:33N 40°44' E 013°52'0 0.0
2015-Jan-28 17:34N 40°44' E 013°52'2019.0
2015-Jan-28 16:31N 40°49' E 014°17'1010.1
2015-Jan-28 15:34N 40°46' E 014°05'7 7.3
2015-Jan-28 14:33N 40°45' E 013°55'17 5.5
2015-Jan-28 11:31N 40°50' E 014°16'1616.4
2015-Jan-28 10:34N 40°45' E 013°56'0 0.3
2015-Jan-28 09:33N 40°45' E 013°57'1613.5
2015-Jan-28 08:23N 40°50' E 014°16'2 2.0
2015-Jan-28 07:25N 40°49' E 014°14'7 8.3
2015-Jan-28 06:34N 40°46' E 014°06'1110.9
2015-Jan-28 05:33N 40°44' E 013°52'0 0.0
2015-Jan-27 17:19N 40°44' E 013°52'2011.2
2015-Jan-27 15:33N 40°50' E 014°17'1 0.0
2015-Jan-26 15:14N 40°51' E 014°16'  
Track history (hours):
 
Tides and Currents Weather Stations Pressure Air Temp Water Temp Dewpoint Dewpoint Depression Visibility Wind Speed Wind Dir Waves Ship Positions

Rosaria Lauro

Last reported at 2015-Jan-29 17:33 UTC. Time now 2015-Jan-31 17:45 UTC.
Position N 40°45' E 013°56'.

Length 40 m; draft 1.1 m.

Type: Passenger vessel. MMSI: 247055900.

Date/timePositionNaut miles runAvg speedWind from/ knotsBaromVisibWave heightAir tempDewpointWater temp
2015-Jan-29 17:33N 40°45' E 013°56'1615.2
2015-Jan-29 16:30N 40°50' E 014°17'1010.6
2015-Jan-29 15:34N 40°46' E 014°04'6 6.2
2015-Jan-29 14:33N 40°45' E 013°56'16 5.3
2015-Jan-29 11:28N 40°49' E 014°17'1617.7
2015-Jan-29 10:34N 40°45' E 013°56'0 0.5
2015-Jan-29 09:33N 40°45' E 013°56'1613.4
2015-Jan-29 08:22N 40°50' E 014°16'2 1.9
2015-Jan-29 07:22N 40°49' E 014°14'6 7.4
2015-Jan-29 06:34N 40°46' E 014°07'1211.8
2015-Jan-29 05:33N 40°44' E 013°52'0 0.0
2015-Jan-28 17:34N 40°44' E 013°52'2019.0
2015-Jan-28 16:31N 40°49' E 014°17'1010.1
2015-Jan-28 15:34N 40°46' E 014°05'7 7.3
2015-Jan-28 14:33N 40°45' E 013°55'17 5.5
2015-Jan-28 11:31N 40°50' E 014°16'1616.4
2015-Jan-28 10:34N 40°45' E 013°56'0 0.3
2015-Jan-28 09:33N 40°45' E 013°57'1613.5
2015-Jan-28 08:23N 40°50' E 014°16'2 2.0
2015-Jan-28 07:25N 40°49' E 014°14'7 8.3
2015-Jan-28 06:34N 40°46' E 014°06'1110.9
2015-Jan-28 05:33N 40°44' E 013°52'0 0.0
2015-Jan-27 17:19N 40°44' E 013°52'2011.2
2015-Jan-27 15:33N 40°50' E 014°17'1 0.0
2015-Jan-26 15:14N 40°51' E 014°16'  

Dump ship's entire track history